Guerra, Texas
Current Conditions -  °F | °C
As of 11:15 AM on Thursday 18 Dec 2014 (Local Time) from KAPY Reporting Station
Haze Haze  
Wind Chill: 58°   Ceiling: 300
Heat Index: 58°   Visibility: 3mi
Dew Point: 58°   Wind: 7mph
Humidity: 100%   Direction: 320°NW
Pressure: 30.1"   Gusts: NA
Location:  26.88°N, 98.89°W
Report Text: KAPY 181715Z AUTO 32006KT 3SM BR OVC003 14/14 A3010 RMK AO2 T01430143
Loading
Personal Weather Stations






























Interactive Weather Map New forecast layout! Learn more

10-Day Weather Forecast

Advertisements
Track Severe Weather on mobile